sensor_id;sensor_type;location;lat;lon;timestamp;pressure;altitude;pressure_sealevel;temperature;humidity
24620;BME280;12763;55.802;37.404;2023-06-10T00:00:40;99904.22;;;14.72;72.10
24620;BME280;12763;55.802;37.404;2023-06-10T00:03:10;99894.41;;;14.88;71.48
24620;BME280;12763;55.802;37.404;2023-06-10T00:05:38;99896.44;;;14.92;71.16
24620;BME280;12763;55.802;37.404;2023-06-10T00:08:08;99890.41;;;14.95;71.08
24620;BME280;12763;55.802;37.404;2023-06-10T00:10:37;99894.59;;;14.75;72.54
24620;BME280;12763;55.802;37.404;2023-06-10T00:13:06;99906.34;;;14.88;71.41
24620;BME280;12763;55.802;37.404;2023-06-10T00:15:35;99904.75;;;14.81;71.51
24620;BME280;12763;55.802;37.404;2023-06-10T00:18:04;99900.97;;;14.75;72.07
24620;BME280;12763;55.802;37.404;2023-06-10T00:20:30;99908.72;;;14.73;72.30
24620;BME280;12763;55.802;37.404;2023-06-10T00:22:58;99908.72;;;14.73;72.71
24620;BME280;12763;55.802;37.404;2023-06-10T00:25:26;99918.97;;;14.73;73.05
24620;BME280;12763;55.802;37.404;2023-06-10T00:27:52;99923.97;;;14.82;73.16
24620;BME280;12763;55.802;37.404;2023-06-10T00:30:18;99925.81;;;14.88;72.55
24620;BME280;12763;55.802;37.404;2023-06-10T00:32:45;99921.78;;;14.84;73.04
24620;BME280;12763;55.802;37.404;2023-06-10T00:35:11;99925.81;;;14.88;72.39
24620;BME280;12763;55.802;37.404;2023-06-10T00:37:37;99928.94;;;14.80;72.81
24620;BME280;12763;55.802;37.404;2023-06-10T00:40:04;99933.97;;;14.83;73.03
24620;BME280;12763;55.802;37.404;2023-06-10T00:42:32;99940.25;;;14.79;73.53
24620;BME280;12763;55.802;37.404;2023-06-10T00:44:59;99943.75;;;14.74;74.98
24620;BME280;12763;55.802;37.404;2023-06-10T00:47:25;99942.06;;;14.73;75.60
24620;BME280;12763;55.802;37.404;2023-06-10T00:49:51;99943.38;;;14.70;75.52
24620;BME280;12763;55.802;37.404;2023-06-10T00:52:18;99943.91;;;14.61;76.48
24620;BME280;12763;55.802;37.404;2023-06-10T00:54:46;99943.25;;;14.47;77.02
24620;BME280;12763;55.802;37.404;2023-06-10T00:57:12;99952.06;;;14.26;79.10
24620;BME280;12763;55.802;37.404;2023-06-10T00:59:44;99950.38;;;14.43;78.56
24620;BME280;12763;55.802;37.404;2023-06-10T01:02:12;99951.66;;;14.59;77.14
24620;BME280;12763;55.802;37.404;2023-06-10T01:04:38;99965.16;;;14.55;77.34
24620;BME280;12763;55.802;37.404;2023-06-10T01:10:23;99962.47;;;14.49;78.59
24620;BME280;12763;55.802;37.404;2023-06-10T01:13:00;99970.66;;;14.44;78.72
24620;BME280;12763;55.802;37.404;2023-06-10T01:15:33;99967.56;;;14.52;78.15
24620;BME280;12763;55.802;37.404;2023-06-10T01:18:01;99976.22;;;14.44;78.33
24620;BME280;12763;55.802;37.404;2023-06-10T01:20:31;99972.19;;;14.22;80.53
24620;BME280;12763;55.802;37.404;2023-06-10T01:22:59;99978.75;;;14.27;80.27
24620;BME280;12763;55.802;37.404;2023-06-10T01:25:26;99974.44;;;14.13;80.89
24620;BME280;12763;55.802;37.404;2023-06-10T01:28:05;99987.41;;;14.37;80.21
24620;BME280;12763;55.802;37.404;2023-06-10T01:30:50;99979.47;;;14.41;79.73
24620;BME280;12763;55.802;37.404;2023-06-10T01:33:27;99990.25;;;14.49;78.93
24620;BME280;12763;55.802;37.404;2023-06-10T01:35:57;99993.94;;;14.43;78.81
24620;BME280;12763;55.802;37.404;2023-06-10T01:38:26;99999.97;;;14.40;79.38
24620;BME280;12763;55.802;37.404;2023-06-10T01:40:56;99994.94;;;14.48;78.52
24620;BME280;12763;55.802;37.404;2023-06-10T01:43:23;99995.41;;;14.45;78.86
24620;BME280;12763;55.802;37.404;2023-06-10T01:45:49;99993.94;;;14.25;80.93
24620;BME280;12763;55.802;37.404;2023-06-10T01:48:15;99985.13;;;14.09;82.29
24620;BME280;12763;55.802;37.404;2023-06-10T01:50:41;99995.78;;;13.94;83.47
24620;BME280;12763;55.802;37.404;2023-06-10T01:53:09;99999.31;;;14.20;81.82
24620;BME280;12763;55.802;37.404;2023-06-10T01:55:35;100004.59;;;14.28;81.10
24620;BME280;12763;55.802;37.404;2023-06-10T01:58:01;100003.94;;;14.26;81.53
24620;BME280;12763;55.802;37.404;2023-06-10T02:00:28;100009.09;;;14.04;82.21
24620;BME280;12763;55.802;37.404;2023-06-10T02:02:54;100010.41;;;14.20;81.45
24620;BME280;12763;55.802;37.404;2023-06-10T02:05:19;100006.94;;;14.06;83.12
24620;BME280;12763;55.802;37.404;2023-06-10T02:07:45;100011.50;;;14.19;81.75
24620;BME280;12763;55.802;37.404;2023-06-10T02:10:11;100016.25;;;14.11;82.30
24620;BME280;12763;55.802;37.404;2023-06-10T02:12:37;100023.38;;;14.26;81.21
24620;BME280;12763;55.802;37.404;2023-06-10T02:15:03;100024.00;;;14.28;81.35
24620;BME280;12763;55.802;37.404;2023-06-10T02:17:31;100024.63;;;14.30;81.01
24620;BME280;12763;55.802;37.404;2023-06-10T02:20:18;100015.16;;;14.37;80.75
24620;BME280;12763;55.802;37.404;2023-06-10T02:22:43;100019.84;;;14.37;80.93
24620;BME280;12763;55.802;37.404;2023-06-10T02:25:09;100023.88;;;14.41;80.19
24620;BME280;12763;55.802;37.404;2023-06-10T02:27:35;100022.78;;;14.42;80.57
24620;BME280;12763;55.802;37.404;2023-06-10T02:30:02;100016.88;;;14.38;80.28
24620;BME280;12763;55.802;37.404;2023-06-10T02:32:31;100028.03;;;14.50;79.32
24620;BME280;12763;55.802;37.404;2023-06-10T02:34:57;100017.84;;;14.62;77.96
24620;BME280;12763;55.802;37.404;2023-06-10T02:37:24;100030.88;;;14.61;77.76
24620;BME280;12763;55.802;37.404;2023-06-10T02:39:51;100024.31;;;14.56;78.32
24620;BME280;12763;55.802;37.404;2023-06-10T02:42:17;100033.28;;;14.58;78.14
24620;BME280;12763;55.802;37.404;2023-06-10T02:44:43;100036.66;;;14.60;77.80
24620;BME280;12763;55.802;37.404;2023-06-10T02:47:13;100036.22;;;14.63;77.45
24620;BME280;12763;55.802;37.404;2023-06-10T02:49:39;100043.97;;;14.73;76.40
24620;BME280;12763;55.802;37.404;2023-06-10T02:52:06;100042.06;;;14.73;75.30
24620;BME280;12763;55.802;37.404;2023-06-10T02:54:33;100045.53;;;14.68;75.04
24620;BME280;12763;55.802;37.404;2023-06-10T02:56:59;100042.91;;;14.74;74.18
24620;BME280;12763;55.802;37.404;2023-06-10T02:59:27;100045.91;;;14.72;74.05
24620;BME280;12763;55.802;37.404;2023-06-10T03:01:54;100048.47;;;14.74;73.64
24620;BME280;12763;55.802;37.404;2023-06-10T03:04:21;100043.75;;;14.74;73.85
24620;BME280;12763;55.802;37.404;2023-06-10T03:06:57;100053.44;;;14.83;73.43
24620;BME280;12763;55.802;37.404;2023-06-10T03:09:30;100052.44;;;14.78;73.49
24620;BME280;12763;55.802;37.404;2023-06-10T03:11:58;100045.91;;;14.72;73.68
24620;BME280;12763;55.802;37.404;2023-06-10T03:14:25;100046.84;;;14.66;73.96
24620;BME280;12763;55.802;37.404;2023-06-10T03:16:51;100049.31;;;14.74;73.45
24620;BME280;12763;55.802;37.404;2023-06-10T03:19:19;100058.72;;;14.91;72.71
24620;BME280;12763;55.802;37.404;2023-06-10T03:22:10;100054.03;;;15.03;72.37
24620;BME280;12763;55.802;37.404;2023-06-10T03:24:40;100054.63;;;15.05;71.69
24620;BME280;12763;55.802;37.404;2023-06-10T03:27:12;100045.84;;;15.08;71.53
24620;BME280;12763;55.802;37.404;2023-06-10T03:29:41;100053.56;;;15.06;71.44
24620;BME280;12763;55.802;37.404;2023-06-10T03:32:08;100054.13;;;15.26;71.37
24620;BME280;12763;55.802;37.404;2023-06-10T03:34:35;100052.44;;;15.25;71.07
24620;BME280;12763;55.802;37.404;2023-06-10T03:37:02;100063.69;;;15.30;70.96
24620;BME280;12763;55.802;37.404;2023-06-10T03:39:29;100061.88;;;15.36;70.23
24620;BME280;12763;55.802;37.404;2023-06-10T03:41:57;100071.56;;;15.34;70.08
24620;BME280;12763;55.802;37.404;2023-06-10T03:44:24;100062.75;;;15.37;69.97
24620;BME280;12763;55.802;37.404;2023-06-10T03:46:54;100065.06;;;15.40;70.00
24620;BME280;12763;55.802;37.404;2023-06-10T03:49:22;100067.03;;;15.51;69.41
24620;BME280;12763;55.802;37.404;2023-06-10T03:51:54;100067.44;;;15.54;68.72
24620;BME280;12763;55.802;37.404;2023-06-10T03:54:20;100058.84;;;15.56;68.23
24620;BME280;12763;55.802;37.404;2023-06-10T03:56:47;100063.44;;;15.62;67.44
24620;BME280;12763;55.802;37.404;2023-06-10T03:59:14;100066.66;;;15.47;67.64
24620;BME280;12763;55.802;37.404;2023-06-10T04:01:41;100071.06;;;15.66;66.95
24620;BME280;12763;55.802;37.404;2023-06-10T04:04:08;100066.34;;;15.67;66.40
24620;BME280;12763;55.802;37.404;2023-06-10T04:06:35;100076.44;;;15.79;65.38
24620;BME280;12763;55.802;37.404;2023-06-10T04:09:03;100074.13;;;15.88;65.04
24620;BME280;12763;55.802;37.404;2023-06-10T04:11:30;100079.44;;;15.78;65.13
24620;BME280;12763;55.802;37.404;2023-06-10T04:13:57;100077.53;;;15.90;64.54
24620;BME280;12763;55.802;37.404;2023-06-10T04:16:25;100076.81;;;15.95;64.04
24620;BME280;12763;55.802;37.404;2023-06-10T04:18:51;100083.44;;;15.94;64.22
24620;BME280;12763;55.802;37.404;2023-06-10T04:21:17;100082.38;;;16.06;63.31
24620;BME280;12763;55.802;37.404;2023-06-10T04:23:44;100077.41;;;16.08;62.81
24620;BME280;12763;55.802;37.404;2023-06-10T04:26:10;100081.41;;;16.12;61.99
24620;BME280;12763;55.802;37.404;2023-06-10T04:28:39;100080.19;;;16.08;61.70
24620;BME280;12763;55.802;37.404;2023-06-10T04:31:05;100073.19;;;16.17;60.91
24620;BME280;12763;55.802;37.404;2023-06-10T04:33:32;100082.13;;;16.19;60.81
24620;BME280;12763;55.802;37.404;2023-06-10T04:36:00;100080.69;;;16.28;60.11
24620;BME280;12763;55.802;37.404;2023-06-10T04:38:29;100085.88;;;16.36;59.41
24620;BME280;12763;55.802;37.404;2023-06-10T04:40:57;100091.22;;;16.26;59.32
24620;BME280;12763;55.802;37.404;2023-06-10T04:43:25;100089.38;;;16.43;59.15
24620;BME280;12763;55.802;37.404;2023-06-10T04:45:51;100088.31;;;16.44;59.12
24620;BME280;12763;55.802;37.404;2023-06-10T04:48:17;100089.88;;;16.64;58.53
24620;BME280;12763;55.802;37.404;2023-06-10T04:50:43;100094.00;;;16.73;58.30
24620;BME280;12763;55.802;37.404;2023-06-10T04:53:10;100080.31;;;16.48;58.03
24620;BME280;12763;55.802;37.404;2023-06-10T04:55:38;100099.44;;;16.44;59.55
24620;BME280;12763;55.802;37.404;2023-06-10T04:58:03;100102.00;;;16.58;58.60
24620;BME280;12763;55.802;37.404;2023-06-10T05:00:29;100100.19;;;16.63;57.98
24620;BME280;12763;55.802;37.404;2023-06-10T05:02:55;100101.47;;;16.84;57.43
24620;BME280;12763;55.802;37.404;2023-06-10T05:05:22;100105.44;;;16.99;56.63
24620;BME280;12763;55.802;37.404;2023-06-10T05:07:48;100106.16;;;17.07;55.89
24620;BME280;12763;55.802;37.404;2023-06-10T05:10:14;100115.03;;;16.92;56.26
24620;BME280;12763;55.802;37.404;2023-06-10T05:12:40;100106.19;;;16.95;56.01
24620;BME280;12763;55.802;37.404;2023-06-10T05:15:08;100112.16;;;16.87;56.67
24620;BME280;12763;55.802;37.404;2023-06-10T05:17:34;100110.63;;;16.56;56.89
24620;BME280;12763;55.802;37.404;2023-06-10T05:20:03;100109.50;;;16.45;56.75
24620;BME280;12763;55.802;37.404;2023-06-10T05:22:31;100109.03;;;16.49;56.27
24620;BME280;12763;55.802;37.404;2023-06-10T05:24:58;100112.16;;;16.40;56.23
24620;BME280;12763;55.802;37.404;2023-06-10T05:27:24;100117.97;;;16.51;55.96
24620;BME280;12763;55.802;37.404;2023-06-10T05:29:50;100116.88;;;16.75;54.87
24620;BME280;12763;55.802;37.404;2023-06-10T05:32:18;100110.94;;;16.83;54.73
24620;BME280;12763;55.802;37.404;2023-06-10T05:34:44;100118.69;;;16.81;55.73
24620;BME280;12763;55.802;37.404;2023-06-10T05:37:10;100123.06;;;16.77;55.60
24620;BME280;12763;55.802;37.404;2023-06-10T05:39:36;100125.47;;;16.85;55.46
24620;BME280;12763;55.802;37.404;2023-06-10T05:42:06;100128.72;;;16.93;55.15
24620;BME280;12763;55.802;37.404;2023-06-10T05:44:33;100128.88;;;16.75;55.34
24620;BME280;12763;55.802;37.404;2023-06-10T05:47:00;100132.69;;;17.09;54.47
24620;BME280;12763;55.802;37.404;2023-06-10T05:49:26;100135.00;;;17.12;54.25
24620;BME280;12763;55.802;37.404;2023-06-10T05:51:53;100135.16;;;17.34;53.65
24620;BME280;12763;55.802;37.404;2023-06-10T05:54:19;100141.81;;;17.33;53.39
24620;BME280;12763;55.802;37.404;2023-06-10T05:56:45;100138.22;;;17.60;52.65
24620;BME280;12763;55.802;37.404;2023-06-10T05:59:12;100137.81;;;17.69;52.75
24620;BME280;12763;55.802;37.404;2023-06-10T06:01:38;100128.94;;;17.72;52.93
24620;BME280;12763;55.802;37.404;2023-06-10T06:04:05;100133.59;;;17.26;54.17
24620;BME280;12763;55.802;37.404;2023-06-10T06:06:31;100133.09;;;16.89;55.01
24620;BME280;12763;55.802;37.404;2023-06-10T06:08:57;100139.66;;;16.83;55.63
24620;BME280;12763;55.802;37.404;2023-06-10T06:11:23;100128.97;;;16.92;55.13
24620;BME280;12763;55.802;37.404;2023-06-10T06:13:51;100136.88;;;16.72;56.03
24620;BME280;12763;55.802;37.404;2023-06-10T06:16:17;100137.84;;;16.66;56.00
24620;BME280;12763;55.802;37.404;2023-06-10T06:18:44;100147.06;;;16.78;55.51
24620;BME280;12763;55.802;37.404;2023-06-10T06:21:10;100145.50;;;16.70;55.63
24620;BME280;12763;55.802;37.404;2023-06-10T06:23:36;100130.88;;;17.03;54.50
24620;BME280;12763;55.802;37.404;2023-06-10T06:26:02;100145.28;;;17.40;54.01
24620;BME280;12763;55.802;37.404;2023-06-10T06:28:28;100143.56;;;17.79;52.93
24620;BME280;12763;55.802;37.404;2023-06-10T06:30:56;100140.19;;;17.77;52.67
24620;BME280;12763;55.802;37.404;2023-06-10T06:33:22;100148.53;;;17.48;53.58
24620;BME280;12763;55.802;37.404;2023-06-10T06:35:48;100153.25;;;17.59;53.37
24620;BME280;12763;55.802;37.404;2023-06-10T06:38:14;100152.75;;;17.63;52.87
24620;BME280;12763;55.802;37.404;2023-06-10T06:40:40;100153.59;;;17.91;51.81
24620;BME280;12763;55.802;37.404;2023-06-10T06:43:06;100150.88;;;17.96;51.94
24620;BME280;12763;55.802;37.404;2023-06-10T06:45:47;100159.19;;;17.91;51.51
24620;BME280;12763;55.802;37.404;2023-06-10T06:48:13;100163.16;;;18.29;50.69
24620;BME280;12763;55.802;37.404;2023-06-10T06:50:39;100177.63;;;18.75;49.68
24620;BME280;12763;55.802;37.404;2023-06-10T06:53:07;100177.06;;;18.40;50.07
24620;BME280;12763;55.802;37.404;2023-06-10T06:55:33;100168.50;;;17.97;50.74
24620;BME280;12763;55.802;37.404;2023-06-10T06:57:59;100167.81;;;18.06;50.64
24620;BME280;12763;55.802;37.404;2023-06-10T07:00:28;100167.56;;;17.91;50.52
24620;BME280;12763;55.802;37.404;2023-06-10T07:02:54;100167.78;;;18.51;49.33
24620;BME280;12763;55.802;37.404;2023-06-10T07:05:20;100176.69;;;18.87;48.29
24620;BME280;12763;55.802;37.404;2023-06-10T07:07:46;100169.91;;;19.21;47.66
24620;BME280;12763;55.802;37.404;2023-06-10T07:10:12;100173.59;;;18.83;48.07
24620;BME280;12763;55.802;37.404;2023-06-10T07:12:40;100175.38;;;19.11;47.42
24620;BME280;12763;55.802;37.404;2023-06-10T07:15:06;100164.53;;;18.59;48.63
24620;BME280;12763;55.802;37.404;2023-06-10T07:17:32;100174.13;;;18.63;48.39
24620;BME280;12763;55.802;37.404;2023-06-10T07:20:00;100181.63;;;18.30;49.02
24620;BME280;12763;55.802;37.404;2023-06-10T07:22:25;100183.44;;;17.91;49.17
24620;BME280;12763;55.802;37.404;2023-06-10T07:24:52;100175.56;;;17.88;49.73
24620;BME280;12763;55.802;37.404;2023-06-10T07:27:20;100181.50;;;17.91;49.64
24620;BME280;12763;55.802;37.404;2023-06-10T07:29:46;100185.56;;;17.84;49.78
24620;BME280;12763;55.802;37.404;2023-06-10T07:32:12;100182.41;;;17.80;48.97
24620;BME280;12763;55.802;37.404;2023-06-10T07:34:38;100184.66;;;17.67;48.40
24620;BME280;12763;55.802;37.404;2023-06-10T07:37:04;100187.59;;;17.48;48.47
24620;BME280;12763;55.802;37.404;2023-06-10T07:39:30;100184.53;;;17.90;47.04
24620;BME280;12763;55.802;37.404;2023-06-10T07:41:56;100190.50;;;18.27;46.89
24620;BME280;12763;55.802;37.404;2023-06-10T07:44:23;100187.06;;;18.19;46.85
24620;BME280;12763;55.802;37.404;2023-06-10T07:46:49;100197.06;;;19.04;45.88
24620;BME280;12763;55.802;37.404;2023-06-10T07:49:15;100187.63;;;19.48;44.66
24620;BME280;12763;55.802;37.404;2023-06-10T07:51:41;100197.72;;;19.98;44.09
24620;BME280;12763;55.802;37.404;2023-06-10T07:54:07;100196.50;;;20.42;43.12
24620;BME280;12763;55.802;37.404;2023-06-10T07:56:33;100193.88;;;20.62;42.48
24620;BME280;12763;55.802;37.404;2023-06-10T07:58:59;100195.56;;;19.56;43.47
24620;BME280;12763;55.802;37.404;2023-06-10T08:01:25;100197.47;;;19.77;43.26
24620;BME280;12763;55.802;37.404;2023-06-10T08:03:51;100193.97;;;19.39;43.49
24620;BME280;12763;55.802;37.404;2023-06-10T08:06:17;100200.88;;;19.79;42.99
24620;BME280;12763;55.802;37.404;2023-06-10T08:08:43;100213.47;;;20.04;42.02
24620;BME280;12763;55.802;37.404;2023-06-10T08:11:13;100204.06;;;20.41;41.62
24620;BME280;12763;55.802;37.404;2023-06-10T08:13:39;100208.00;;;20.19;41.29
24620;BME280;12763;55.802;37.404;2023-06-10T08:16:05;100206.81;;;20.10;40.54
24620;BME280;12763;55.802;37.404;2023-06-10T08:18:31;100207.03;;;20.30;39.57
24620;BME280;12763;55.802;37.404;2023-06-10T08:20:57;100214.38;;;20.09;39.19
24620;BME280;12763;55.802;37.404;2023-06-10T08:23:23;100219.59;;;19.52;39.17
24620;BME280;12763;55.802;37.404;2023-06-10T08:25:49;100223.63;;;19.40;39.46
24620;BME280;12763;55.802;37.404;2023-06-10T08:28:15;100221.25;;;19.75;38.70
24620;BME280;12763;55.802;37.404;2023-06-10T08:30:41;100218.22;;;19.76;39.01
24620;BME280;12763;55.802;37.404;2023-06-10T08:33:07;100230.06;;;19.40;38.75
24620;BME280;12763;55.802;37.404;2023-06-10T08:35:33;100233.81;;;18.91;37.97
24620;BME280;12763;55.802;37.404;2023-06-10T08:37:59;100238.31;;;18.92;37.96
24620;BME280;12763;55.802;37.404;2023-06-10T08:40:25;100239.28;;;19.19;36.94
24620;BME280;12763;55.802;37.404;2023-06-10T08:45:17;100241.66;;;19.70;38.00
24620;BME280;12763;55.802;37.404;2023-06-10T08:47:49;100237.44;;;19.46;37.98
24620;BME280;12763;55.802;37.404;2023-06-10T08:50:17;100232.34;;;19.65;37.73
24620;BME280;12763;55.802;37.404;2023-06-10T08:52:44;100236.63;;;20.21;37.71
24620;BME280;12763;55.802;37.404;2023-06-10T08:55:25;100241.22;;;20.27;37.79
24620;BME280;12763;55.802;37.404;2023-06-10T08:57:53;100243.22;;;20.31;38.44
24620;BME280;12763;55.802;37.404;2023-06-10T09:00:19;100241.69;;;20.24;38.80
24620;BME280;12763;55.802;37.404;2023-06-10T09:02:45;100246.13;;;20.20;38.16
24620;BME280;12763;55.802;37.404;2023-06-10T09:05:13;100249.13;;;20.13;37.45
24620;BME280;12763;55.802;37.404;2023-06-10T09:07:39;100239.09;;;20.17;37.52
24620;BME280;12763;55.802;37.404;2023-06-10T09:10:06;100243.81;;;19.85;37.77
24620;BME280;12763;55.802;37.404;2023-06-10T09:12:33;100240.31;;;20.00;37.93
24620;BME280;12763;55.802;37.404;2023-06-10T09:15:01;100244.50;;;19.75;38.76
24620;BME280;12763;55.802;37.404;2023-06-10T09:17:32;100234.50;;;19.79;37.92
24620;BME280;12763;55.802;37.404;2023-06-10T09:19:59;100235.78;;;19.72;38.16
24620;BME280;12763;55.802;37.404;2023-06-10T09:22:25;100246.03;;;20.10;37.82
24620;BME280;12763;55.802;37.404;2023-06-10T09:25:02;100247.50;;;20.44;37.39
24620;BME280;12763;55.802;37.404;2023-06-10T09:27:30;100236.25;;;20.39;37.16
24620;BME280;12763;55.802;37.404;2023-06-10T09:29:57;100247.09;;;20.57;37.66
24620;BME280;12763;55.802;37.404;2023-06-10T09:32:26;100248.19;;;20.03;37.72
24620;BME280;12763;55.802;37.404;2023-06-10T09:34:53;100248.22;;;19.59;38.91
24620;BME280;12763;55.802;37.404;2023-06-10T09:37:25;100249.56;;;19.35;37.71
24620;BME280;12763;55.802;37.404;2023-06-10T09:40:05;100244.63;;;19.42;38.46
24620;BME280;12763;55.802;37.404;2023-06-10T09:42:37;100248.47;;;20.55;36.24
24620;BME280;12763;55.802;37.404;2023-06-10T09:45:04;100252.41;;;20.90;35.53
24620;BME280;12763;55.802;37.404;2023-06-10T09:47:33;100249.22;;;21.65;34.70
24620;BME280;12763;55.802;37.404;2023-06-10T09:49:59;100248.13;;;21.72;34.48
24620;BME280;12763;55.802;37.404;2023-06-10T09:52:27;100249.44;;;22.26;34.07
24620;BME280;12763;55.802;37.404;2023-06-10T09:54:54;100263.00;;;22.49;34.23
24620;BME280;12763;55.802;37.404;2023-06-10T09:57:24;100253.69;;;23.29;33.20
24620;BME280;12763;55.802;37.404;2023-06-10T09:59:54;100250.78;;;23.75;32.72
24620;BME280;12763;55.802;37.404;2023-06-10T10:02:20;100250.06;;;24.08;31.91
24620;BME280;12763;55.802;37.404;2023-06-10T10:04:46;100239.00;;;23.58;31.86
24620;BME280;12763;55.802;37.404;2023-06-10T10:07:13;100242.41;;;22.18;32.94
24620;BME280;12763;55.802;37.404;2023-06-10T10:09:40;100251.38;;;21.43;33.90
24620;BME280;12763;55.802;37.404;2023-06-10T10:12:12;100248.78;;;21.32;33.40
24620;BME280;12763;55.802;37.404;2023-06-10T10:14:39;100245.78;;;20.70;34.72
24620;BME280;12763;55.802;37.404;2023-06-10T10:17:11;100258.09;;;21.00;34.29
24620;BME280;12763;55.802;37.404;2023-06-10T10:19:46;100254.03;;;20.81;35.53
24620;BME280;12763;55.802;37.404;2023-06-10T10:22:26;100257.53;;;20.98;34.25
24620;BME280;12763;55.802;37.404;2023-06-10T10:24:57;100251.19;;;21.13;33.80
24620;BME280;12763;55.802;37.404;2023-06-10T10:27:30;100261.63;;;21.18;33.94
24620;BME280;12763;55.802;37.404;2023-06-10T10:29:59;100248.13;;;20.46;35.09
24620;BME280;12763;55.802;37.404;2023-06-10T10:32:31;100247.13;;;20.62;35.28
24620;BME280;12763;55.802;37.404;2023-06-10T10:35:08;100256.69;;;21.40;34.56
24620;BME280;12763;55.802;37.404;2023-06-10T10:37:35;100262.44;;;20.81;34.55
24620;BME280;12763;55.802;37.404;2023-06-10T10:40:03;100255.41;;;20.47;34.82
24620;BME280;12763;55.802;37.404;2023-06-10T10:42:30;100254.81;;;20.77;34.70
24620;BME280;12763;55.802;37.404;2023-06-10T10:44:56;100251.91;;;21.97;33.56
24620;BME280;12763;55.802;37.404;2023-06-10T10:47:27;100252.41;;;23.86;30.88
24620;BME280;12763;55.802;37.404;2023-06-10T10:49:55;100246.69;;;25.18;29.28
24620;BME280;12763;55.802;37.404;2023-06-10T10:52:24;100259.94;;;24.93;28.37
24620;BME280;12763;55.802;37.404;2023-06-10T10:54:53;100256.47;;;24.63;28.57
24620;BME280;12763;55.802;37.404;2023-06-10T10:57:21;100244.81;;;25.08;28.05
24620;BME280;12763;55.802;37.404;2023-06-10T10:59:57;100244.72;;;25.47;27.31
24620;BME280;12763;55.802;37.404;2023-06-10T11:04:57;100251.75;;;24.92;27.93
24620;BME280;12763;55.802;37.404;2023-06-10T11:07:25;100253.31;;;25.84;27.21
24620;BME280;12763;55.802;37.404;2023-06-10T11:10:11;100249.84;;;25.40;26.85
24620;BME280;12763;55.802;37.404;2023-06-10T11:12:53;100237.94;;;23.44;28.59
24620;BME280;12763;55.802;37.404;2023-06-10T11:15:27;100252.00;;;22.17;30.81
24620;BME280;12763;55.802;37.404;2023-06-10T11:18:24;100257.53;;;21.97;30.71
24620;BME280;12763;55.802;37.404;2023-06-10T11:23:44;100263.97;;;21.41;31.43
24620;BME280;12763;55.802;37.404;2023-06-10T11:29:04;100260.91;;;21.37;32.63
24620;BME280;12763;55.802;37.404;2023-06-10T11:31:32;100262.38;;;21.55;32.83
24620;BME280;12763;55.802;37.404;2023-06-10T11:34:01;100254.28;;;23.01;31.68
24620;BME280;12763;55.802;37.404;2023-06-10T11:36:28;100261.66;;;22.67;31.55
24620;BME280;12763;55.802;37.404;2023-06-10T11:38:59;100261.00;;;22.40;31.94
24620;BME280;12763;55.802;37.404;2023-06-10T11:41:27;100263.25;;;22.28;31.56
24620;BME280;12763;55.802;37.404;2023-06-10T11:43:55;100261.16;;;21.93;31.91
24620;BME280;12763;55.802;37.404;2023-06-10T11:46:24;100267.28;;;21.85;32.21
24620;BME280;12763;55.802;37.404;2023-06-10T11:48:58;100261.53;;;22.27;31.74
24620;BME280;12763;55.802;37.404;2023-06-10T11:51:32;100260.44;;;22.43;31.52
24620;BME280;12763;55.802;37.404;2023-06-10T11:53:58;100260.19;;;22.44;31.23
24620;BME280;12763;55.802;37.404;2023-06-10T11:56:26;100260.94;;;24.69;29.01
24620;BME280;12763;55.802;37.404;2023-06-10T11:58:54;100256.34;;;26.11;27.70
24620;BME280;12763;55.802;37.404;2023-06-10T12:01:22;100248.56;;;27.56;26.06
24620;BME280;12763;55.802;37.404;2023-06-10T12:03:56;100259.56;;;26.98;25.91
24620;BME280;12763;55.802;37.404;2023-06-10T12:06:22;100252.06;;;24.90;28.23
24620;BME280;12763;55.802;37.404;2023-06-10T12:08:48;100254.84;;;23.03;29.83
24620;BME280;12763;55.802;37.404;2023-06-10T12:11:14;100250.09;;;21.71;32.68
24620;BME280;12763;55.802;37.404;2023-06-10T12:13:46;100259.38;;;21.20;33.86
24620;BME280;12763;55.802;37.404;2023-06-10T12:16:15;100261.69;;;21.33;33.72
24620;BME280;12763;55.802;37.404;2023-06-10T12:18:46;100261.72;;;21.38;33.63
24620;BME280;12763;55.802;37.404;2023-06-10T12:21:24;100256.09;;;20.96;33.85
24620;BME280;12763;55.802;37.404;2023-06-10T12:26:40;100269.50;;;22.90;32.13
24620;BME280;12763;55.802;37.404;2023-06-10T12:32:02;100268.34;;;23.21;30.61
24620;BME280;12763;55.802;37.404;2023-06-10T12:34:39;100268.84;;;23.59;31.47
24620;BME280;12763;55.802;37.404;2023-06-10T12:37:11;100273.59;;;25.67;28.95
24620;BME280;12763;55.802;37.404;2023-06-10T12:39:41;100264.88;;;27.18;27.81
24620;BME280;12763;55.802;37.404;2023-06-10T12:42:09;100252.94;;;26.33;28.20
24620;BME280;12763;55.802;37.404;2023-06-10T12:44:40;100266.94;;;26.80;27.97
24620;BME280;12763;55.802;37.404;2023-06-10T12:47:10;100249.94;;;27.13;27.24
24620;BME280;12763;55.802;37.404;2023-06-10T12:49:40;100263.97;;;27.04;27.26
24620;BME280;12763;55.802;37.404;2023-06-10T12:52:06;100256.72;;;27.30;27.14
24620;BME280;12763;55.802;37.404;2023-06-10T12:54:33;100252.28;;;27.97;26.04
24620;BME280;12763;55.802;37.404;2023-06-10T12:57:00;100244.91;;;26.59;27.50
24620;BME280;12763;55.802;37.404;2023-06-10T12:59:27;100252.84;;;26.75;27.02
24620;BME280;12763;55.802;37.404;2023-06-10T13:01:54;100263.59;;;27.57;26.87
24620;BME280;12763;55.802;37.404;2023-06-10T13:04:20;100248.28;;;27.58;26.23